Arvin, California
Current Conditions -  °F | °C
As of 3:54 PM on Saturday 20 Dec 2014 (Local Time) from KBFL Reporting Station
Overcast Overcast  
Wind Chill: 62°   Ceiling: 3400
Heat Index: 62°   Visibility: 10mi
Dew Point: 50°   Wind: 7mph
Humidity: 65%   Direction: 320°NW
Pressure: 30.19"   Gusts: NA
Location:  35.21°N, 118.82°W
Report Text: KBFL 202354Z 32006KT 10SM OVC034 17/10 A3019 RMK AO2 SLP221 60000 T01670100 10167 20133 53007
Loading
Personal Weather Stations






























Interactive Weather Map New forecast layout! Learn more

10-Day Weather Forecast

Advertisements
Track Severe Weather on mobile